sensor_id;sensor_type;location;lat;lon;timestamp;P1;durP1;ratioP1;P2;durP2;ratioP2
8871;SDS011;4472;52.092;9.820;2023-08-12T00:02:19;15.63;;;4.73;;
8871;SDS011;4472;52.092;9.820;2023-08-12T00:05:08;11.67;;;4.57;;
8871;SDS011;4472;52.092;9.820;2023-08-12T00:07:57;10.10;;;4.80;;
8871;SDS011;4472;52.092;9.820;2023-08-12T00:10:44;10.97;;;4.70;;
8871;SDS011;4472;52.092;9.820;2023-08-12T00:13:31;9.73;;;4.50;;
8871;SDS011;4472;52.092;9.820;2023-08-12T00:16:18;8.83;;;4.80;;
8871;SDS011;4472;52.092;9.820;2023-08-12T00:19:05;10.40;;;4.80;;
8871;SDS011;4472;52.092;9.820;2023-08-12T00:21:55;8.30;;;4.47;;
8871;SDS011;4472;52.092;9.820;2023-08-12T00:24:42;11.63;;;4.70;;
8871;SDS011;4472;52.092;9.820;2023-08-12T00:27:29;8.67;;;4.23;;
8871;SDS011;4472;52.092;9.820;2023-08-12T00:30:17;13.47;;;4.20;;
8871;SDS011;4472;52.092;9.820;2023-08-12T00:33:04;13.67;;;4.60;;
8871;SDS011;4472;52.092;9.820;2023-08-12T00:35:51;12.63;;;4.57;;
8871;SDS011;4472;52.092;9.820;2023-08-12T00:38:39;20.37;;;4.60;;
8871;SDS011;4472;52.092;9.820;2023-08-12T00:41:26;19.07;;;4.40;;
8871;SDS011;4472;52.092;9.820;2023-08-12T00:44:14;16.07;;;4.53;;
8871;SDS011;4472;52.092;9.820;2023-08-12T00:47:01;11.80;;;4.67;;
8871;SDS011;4472;52.092;9.820;2023-08-12T00:49:48;9.43;;;4.37;;
8871;SDS011;4472;52.092;9.820;2023-08-12T00:52:36;14.37;;;4.40;;
8871;SDS011;4472;52.092;9.820;2023-08-12T00:55:25;8.73;;;4.20;;
8871;SDS011;4472;52.092;9.820;2023-08-12T00:58:12;17.27;;;5.23;;
8871;SDS011;4472;52.092;9.820;2023-08-12T01:01:00;16.23;;;4.33;;
8871;SDS011;4472;52.092;9.820;2023-08-12T01:03:47;12.67;;;4.50;;
8871;SDS011;4472;52.092;9.820;2023-08-12T01:06:34;17.03;;;5.37;;
8871;SDS011;4472;52.092;9.820;2023-08-12T01:09:22;10.60;;;4.20;;
8871;SDS011;4472;52.092;9.820;2023-08-12T01:12:12;8.90;;;4.70;;
8871;SDS011;4472;52.092;9.820;2023-08-12T01:15:06;11.00;;;4.03;;
8871;SDS011;4472;52.092;9.820;2023-08-12T01:17:55;7.37;;;4.00;;
8871;SDS011;4472;52.092;9.820;2023-08-12T01:20:44;7.00;;;3.80;;
8871;SDS011;4472;52.092;9.820;2023-08-12T01:23:33;4.20;;;3.80;;
8871;SDS011;4472;52.092;9.820;2023-08-12T01:26:20;9.43;;;4.00;;
8871;SDS011;4472;52.092;9.820;2023-08-12T01:29:08;5.10;;;3.80;;
8871;SDS011;4472;52.092;9.820;2023-08-12T01:31:55;9.03;;;3.90;;
8871;SDS011;4472;52.092;9.820;2023-08-12T01:34:50;8.03;;;4.37;;
8871;SDS011;4472;52.092;9.820;2023-08-12T01:37:43;6.83;;;4.03;;
8871;SDS011;4472;52.092;9.820;2023-08-12T01:40:33;7.53;;;3.70;;
8871;SDS011;4472;52.092;9.820;2023-08-12T01:43:22;6.07;;;3.77;;
8871;SDS011;4472;52.092;9.820;2023-08-12T01:46:10;9.63;;;4.03;;
8871;SDS011;4472;52.092;9.820;2023-08-12T01:48:57;4.97;;;3.70;;
8871;SDS011;4472;52.092;9.820;2023-08-12T01:51:47;9.97;;;3.57;;
8871;SDS011;4472;52.092;9.820;2023-08-12T01:54:34;5.00;;;3.60;;
8871;SDS011;4472;52.092;9.820;2023-08-12T01:57:23;4.10;;;3.50;;
8871;SDS011;4472;52.092;9.820;2023-08-12T02:00:10;7.93;;;3.77;;
8871;SDS011;4472;52.092;9.820;2023-08-12T02:02:58;4.67;;;3.40;;
8871;SDS011;4472;52.092;9.820;2023-08-12T02:05:45;5.23;;;3.63;;
8871;SDS011;4472;52.092;9.820;2023-08-12T02:08:32;5.30;;;3.53;;
8871;SDS011;4472;52.092;9.820;2023-08-12T02:11:19;5.30;;;3.23;;
8871;SDS011;4472;52.092;9.820;2023-08-12T02:14:07;7.23;;;3.30;;
8871;SDS011;4472;52.092;9.820;2023-08-12T02:16:55;5.37;;;3.30;;
8871;SDS011;4472;52.092;9.820;2023-08-12T02:19:42;5.47;;;3.40;;
8871;SDS011;4472;52.092;9.820;2023-08-12T02:22:29;5.90;;;3.40;;
8871;SDS011;4472;52.092;9.820;2023-08-12T02:25:16;4.37;;;3.40;;
8871;SDS011;4472;52.092;9.820;2023-08-12T02:28:03;7.30;;;3.50;;
8871;SDS011;4472;52.092;9.820;2023-08-12T02:30:52;4.93;;;2.90;;
8871;SDS011;4472;52.092;9.820;2023-08-12T02:33:39;10.10;;;3.80;;
8871;SDS011;4472;52.092;9.820;2023-08-12T02:36:26;11.47;;;3.83;;
8871;SDS011;4472;52.092;9.820;2023-08-12T02:39:14;9.93;;;4.20;;
8871;SDS011;4472;52.092;9.820;2023-08-12T02:42:01;11.47;;;3.53;;
8871;SDS011;4472;52.092;9.820;2023-08-12T02:44:48;7.97;;;3.60;;
8871;SDS011;4472;52.092;9.820;2023-08-12T02:47:37;8.93;;;3.60;;
8871;SDS011;4472;52.092;9.820;2023-08-12T02:50:24;4.40;;;4.00;;
8871;SDS011;4472;52.092;9.820;2023-08-12T02:53:11;6.77;;;3.97;;
8871;SDS011;4472;52.092;9.820;2023-08-12T02:55:58;6.90;;;4.20;;
8871;SDS011;4472;52.092;9.820;2023-08-12T02:58:45;5.10;;;4.03;;
8871;SDS011;4472;52.092;9.820;2023-08-12T03:01:32;6.40;;;4.03;;
8871;SDS011;4472;52.092;9.820;2023-08-12T03:04:21;10.87;;;4.40;;
8871;SDS011;4472;52.092;9.820;2023-08-12T03:07:08;6.60;;;4.43;;
8871;SDS011;4472;52.092;9.820;2023-08-12T03:09:55;9.63;;;4.30;;
8871;SDS011;4472;52.092;9.820;2023-08-12T03:12:42;7.17;;;4.03;;
8871;SDS011;4472;52.092;9.820;2023-08-12T03:15:30;6.47;;;4.30;;
8871;SDS011;4472;52.092;9.820;2023-08-12T03:18:17;9.27;;;4.30;;
8871;SDS011;4472;52.092;9.820;2023-08-12T03:21:06;8.17;;;4.10;;
8871;SDS011;4472;52.092;9.820;2023-08-12T03:23:53;5.93;;;4.13;;
8871;SDS011;4472;52.092;9.820;2023-08-12T03:26:41;10.07;;;4.00;;
8871;SDS011;4472;52.092;9.820;2023-08-12T03:29:28;10.77;;;3.93;;
8871;SDS011;4472;52.092;9.820;2023-08-12T03:32:15;10.10;;;4.10;;
8871;SDS011;4472;52.092;9.820;2023-08-12T03:35:02;7.20;;;4.27;;
8871;SDS011;4472;52.092;9.820;2023-08-12T03:37:51;5.50;;;3.93;;
8871;SDS011;4472;52.092;9.820;2023-08-12T03:40:39;9.70;;;4.63;;
8871;SDS011;4472;52.092;9.820;2023-08-12T03:43:27;9.27;;;4.13;;
8871;SDS011;4472;52.092;9.820;2023-08-12T03:46:17;5.23;;;4.17;;
8871;SDS011;4472;52.092;9.820;2023-08-12T03:49:04;4.70;;;4.30;;
8871;SDS011;4472;52.092;9.820;2023-08-12T03:51:51;5.60;;;4.23;;
8871;SDS011;4472;52.092;9.820;2023-08-12T03:54:40;7.80;;;4.57;;
8871;SDS011;4472;52.092;9.820;2023-08-12T03:57:27;6.60;;;4.20;;
8871;SDS011;4472;52.092;9.820;2023-08-12T04:00:15;5.63;;;4.57;;
8871;SDS011;4472;52.092;9.820;2023-08-12T04:03:02;5.93;;;4.43;;
8871;SDS011;4472;52.092;9.820;2023-08-12T04:05:50;7.57;;;4.47;;
8871;SDS011;4472;52.092;9.820;2023-08-12T04:08:38;8.07;;;4.77;;
8871;SDS011;4472;52.092;9.820;2023-08-12T04:11:26;6.00;;;4.30;;
8871;SDS011;4472;52.092;9.820;2023-08-12T04:14:13;8.63;;;4.60;;
8871;SDS011;4472;52.092;9.820;2023-08-12T04:17:01;8.37;;;5.20;;
8871;SDS011;4472;52.092;9.820;2023-08-12T04:19:48;12.07;;;5.00;;
8871;SDS011;4472;52.092;9.820;2023-08-12T04:22:35;7.97;;;4.77;;
8871;SDS011;4472;52.092;9.820;2023-08-12T04:25:22;10.17;;;4.90;;
8871;SDS011;4472;52.092;9.820;2023-08-12T04:28:11;6.23;;;4.63;;
8871;SDS011;4472;52.092;9.820;2023-08-12T04:30:58;8.93;;;5.20;;
8871;SDS011;4472;52.092;9.820;2023-08-12T04:33:46;6.53;;;4.70;;
8871;SDS011;4472;52.092;9.820;2023-08-12T04:36:34;6.50;;;5.00;;
8871;SDS011;4472;52.092;9.820;2023-08-12T04:39:22;6.00;;;5.20;;
8871;SDS011;4472;52.092;9.820;2023-08-12T04:42:09;7.27;;;5.43;;
8871;SDS011;4472;52.092;9.820;2023-08-12T04:44:57;5.67;;;5.00;;
8871;SDS011;4472;52.092;9.820;2023-08-12T04:47:44;6.10;;;5.20;;
8871;SDS011;4472;52.092;9.820;2023-08-12T04:50:31;10.67;;;5.33;;
8871;SDS011;4472;52.092;9.820;2023-08-12T04:53:21;8.73;;;5.83;;
8871;SDS011;4472;52.092;9.820;2023-08-12T04:56:09;8.80;;;6.07;;
8871;SDS011;4472;52.092;9.820;2023-08-12T04:58:56;7.67;;;5.40;;
8871;SDS011;4472;52.092;9.820;2023-08-12T05:01:45;8.70;;;6.07;;
8871;SDS011;4472;52.092;9.820;2023-08-12T05:04:32;8.10;;;6.83;;
8871;SDS011;4472;52.092;9.820;2023-08-12T05:07:19;11.03;;;6.90;;
8871;SDS011;4472;52.092;9.820;2023-08-12T05:10:07;8.43;;;7.00;;
8871;SDS011;4472;52.092;9.820;2023-08-12T05:12:55;10.27;;;6.87;;
8871;SDS011;4472;52.092;9.820;2023-08-12T05:15:44;8.00;;;7.20;;
8871;SDS011;4472;52.092;9.820;2023-08-12T05:18:34;8.70;;;7.10;;
8871;SDS011;4472;52.092;9.820;2023-08-12T05:21:21;12.83;;;7.27;;
8871;SDS011;4472;52.092;9.820;2023-08-12T05:24:08;11.80;;;7.80;;
8871;SDS011;4472;52.092;9.820;2023-08-12T05:26:56;9.13;;;8.23;;
8871;SDS011;4472;52.092;9.820;2023-08-12T05:29:44;10.23;;;7.87;;
8871;SDS011;4472;52.092;9.820;2023-08-12T05:32:31;9.83;;;8.17;;
8871;SDS011;4472;52.092;9.820;2023-08-12T05:35:19;11.30;;;8.37;;
8871;SDS011;4472;52.092;9.820;2023-08-12T05:38:06;11.57;;;8.87;;
8871;SDS011;4472;52.092;9.820;2023-08-12T05:40:54;9.53;;;8.40;;
8871;SDS011;4472;52.092;9.820;2023-08-12T05:43:41;8.67;;;7.77;;
8871;SDS011;4472;52.092;9.820;2023-08-12T05:46:28;9.37;;;7.50;;
8871;SDS011;4472;52.092;9.820;2023-08-12T05:49:15;8.20;;;7.00;;
8871;SDS011;4472;52.092;9.820;2023-08-12T05:52:04;11.17;;;8.13;;
8871;SDS011;4472;52.092;9.820;2023-08-12T05:54:51;10.60;;;8.10;;
8871;SDS011;4472;52.092;9.820;2023-08-12T05:57:38;8.03;;;6.87;;
8871;SDS011;4472;52.092;9.820;2023-08-12T06:00:26;8.50;;;7.10;;
8871;SDS011;4472;52.092;9.820;2023-08-12T06:03:13;10.30;;;7.20;;
8871;SDS011;4472;52.092;9.820;2023-08-12T06:06:00;7.70;;;6.83;;
8871;SDS011;4472;52.092;9.820;2023-08-12T06:08:49;7.57;;;6.87;;
8871;SDS011;4472;52.092;9.820;2023-08-12T06:11:36;7.67;;;6.97;;
8871;SDS011;4472;52.092;9.820;2023-08-12T06:14:23;8.50;;;6.20;;
8871;SDS011;4472;52.092;9.820;2023-08-12T06:17:10;8.23;;;6.50;;
8871;SDS011;4472;52.092;9.820;2023-08-12T06:19:57;7.20;;;6.50;;
8871;SDS011;4472;52.092;9.820;2023-08-12T06:22:45;10.57;;;7.70;;
8871;SDS011;4472;52.092;9.820;2023-08-12T06:25:33;9.73;;;7.10;;
8871;SDS011;4472;52.092;9.820;2023-08-12T06:28:21;9.63;;;7.60;;
8871;SDS011;4472;52.092;9.820;2023-08-12T06:31:09;8.63;;;6.90;;
8871;SDS011;4472;52.092;9.820;2023-08-12T06:33:56;10.63;;;7.33;;
8871;SDS011;4472;52.092;9.820;2023-08-12T06:36:43;11.07;;;7.40;;
8871;SDS011;4472;52.092;9.820;2023-08-12T06:39:30;10.53;;;6.93;;
8871;SDS011;4472;52.092;9.820;2023-08-12T06:42:18;9.10;;;7.53;;
8871;SDS011;4472;52.092;9.820;2023-08-12T06:45:06;6.73;;;6.13;;
8871;SDS011;4472;52.092;9.820;2023-08-12T06:47:54;9.87;;;6.43;;
8871;SDS011;4472;52.092;9.820;2023-08-12T06:50:41;8.87;;;6.17;;
8871;SDS011;4472;52.092;9.820;2023-08-12T06:53:29;10.33;;;6.80;;
8871;SDS011;4472;52.092;9.820;2023-08-12T06:56:16;7.47;;;6.70;;
8871;SDS011;4472;52.092;9.820;2023-08-12T06:59:04;8.10;;;6.27;;
8871;SDS011;4472;52.092;9.820;2023-08-12T07:01:51;11.87;;;6.33;;
8871;SDS011;4472;52.092;9.820;2023-08-12T07:04:39;9.13;;;6.90;;
8871;SDS011;4472;52.092;9.820;2023-08-12T07:07:26;12.47;;;6.63;;
8871;SDS011;4472;52.092;9.820;2023-08-12T07:10:13;8.33;;;6.73;;
8871;SDS011;4472;52.092;9.820;2023-08-12T07:13:00;9.40;;;6.97;;
8871;SDS011;4472;52.092;9.820;2023-08-12T07:15:48;7.73;;;6.83;;
8871;SDS011;4472;52.092;9.820;2023-08-12T07:18:36;8.60;;;6.17;;
8871;SDS011;4472;52.092;9.820;2023-08-12T07:21:23;7.17;;;6.47;;
8871;SDS011;4472;52.092;9.820;2023-08-12T07:24:10;6.80;;;6.10;;
8871;SDS011;4472;52.092;9.820;2023-08-12T07:26:58;9.93;;;6.73;;
8871;SDS011;4472;52.092;9.820;2023-08-12T07:29:45;12.60;;;6.60;;
8871;SDS011;4472;52.092;9.820;2023-08-12T07:32:35;8.90;;;6.70;;
8871;SDS011;4472;52.092;9.820;2023-08-12T07:35:24;7.73;;;5.80;;
8871;SDS011;4472;52.092;9.820;2023-08-12T07:38:11;7.80;;;6.60;;
8871;SDS011;4472;52.092;9.820;2023-08-12T07:40:59;6.57;;;5.97;;
8871;SDS011;4472;52.092;9.820;2023-08-12T07:43:46;8.13;;;6.20;;
8871;SDS011;4472;52.092;9.820;2023-08-12T07:46:33;7.33;;;5.87;;
8871;SDS011;4472;52.092;9.820;2023-08-12T07:49:22;6.37;;;5.47;;
8871;SDS011;4472;52.092;9.820;2023-08-12T07:52:09;6.33;;;5.23;;
8871;SDS011;4472;52.092;9.820;2023-08-12T07:54:56;9.73;;;5.53;;
8871;SDS011;4472;52.092;9.820;2023-08-12T07:57:44;8.77;;;5.97;;
8871;SDS011;4472;52.092;9.820;2023-08-12T08:00:32;6.33;;;5.50;;
8871;SDS011;4472;52.092;9.820;2023-08-12T08:03:19;8.87;;;5.90;;
8871;SDS011;4472;52.092;9.820;2023-08-12T08:06:07;7.00;;;6.30;;
8871;SDS011;4472;52.092;9.820;2023-08-12T08:08:55;8.53;;;6.20;;
8871;SDS011;4472;52.092;9.820;2023-08-12T08:11:42;8.27;;;6.47;;
8871;SDS011;4472;52.092;9.820;2023-08-12T08:14:29;9.37;;;6.77;;
8871;SDS011;4472;52.092;9.820;2023-08-12T08:17:16;7.73;;;6.13;;
8871;SDS011;4472;52.092;9.820;2023-08-12T08:20:03;10.33;;;5.57;;
8871;SDS011;4472;52.092;9.820;2023-08-12T08:22:53;6.10;;;4.77;;
8871;SDS011;4472;52.092;9.820;2023-08-12T08:25:40;7.63;;;6.87;;
8871;SDS011;4472;52.092;9.820;2023-08-12T08:28:28;8.73;;;6.50;;
8871;SDS011;4472;52.092;9.820;2023-08-12T08:31:15;10.03;;;7.53;;
8871;SDS011;4472;52.092;9.820;2023-08-12T08:34:02;7.40;;;6.13;;
8871;SDS011;4472;52.092;9.820;2023-08-12T08:36:49;9.90;;;7.17;;
8871;SDS011;4472;52.092;9.820;2023-08-12T08:39:38;10.20;;;7.57;;
8871;SDS011;4472;52.092;9.820;2023-08-12T08:42:25;11.40;;;7.60;;
8871;SDS011;4472;52.092;9.820;2023-08-12T08:45:13;9.57;;;7.20;;
8871;SDS011;4472;52.092;9.820;2023-08-12T08:48:01;7.83;;;7.10;;
8871;SDS011;4472;52.092;9.820;2023-08-12T08:50:49;8.53;;;6.53;;
8871;SDS011;4472;52.092;9.820;2023-08-12T08:53:38;7.57;;;4.77;;
8871;SDS011;4472;52.092;9.820;2023-08-12T08:56:26;9.17;;;6.60;;
8871;SDS011;4472;52.092;9.820;2023-08-12T08:59:14;9.10;;;6.90;;
8871;SDS011;4472;52.092;9.820;2023-08-12T09:02:02;8.93;;;6.07;;
8871;SDS011;4472;52.092;9.820;2023-08-12T09:04:49;7.43;;;6.60;;
8871;SDS011;4472;52.092;9.820;2023-08-12T09:07:37;7.10;;;5.63;;
8871;SDS011;4472;52.092;9.820;2023-08-12T09:10:26;8.00;;;5.77;;
8871;SDS011;4472;52.092;9.820;2023-08-12T09:13:15;7.30;;;5.70;;
8871;SDS011;4472;52.092;9.820;2023-08-12T09:16:03;6.20;;;5.60;;
8871;SDS011;4472;52.092;9.820;2023-08-12T09:18:55;10.00;;;5.10;;
8871;SDS011;4472;52.092;9.820;2023-08-12T09:21:42;6.47;;;4.93;;
8871;SDS011;4472;52.092;9.820;2023-08-12T09:24:29;8.90;;;5.83;;
8871;SDS011;4472;52.092;9.820;2023-08-12T09:27:17;8.17;;;6.03;;
8871;SDS011;4472;52.092;9.820;2023-08-12T09:30:07;5.97;;;4.90;;
8871;SDS011;4472;52.092;9.820;2023-08-12T09:32:58;7.57;;;6.00;;
8871;SDS011;4472;52.092;9.820;2023-08-12T09:35:49;6.97;;;5.23;;
8871;SDS011;4472;52.092;9.820;2023-08-12T09:38:37;8.93;;;5.37;;
8871;SDS011;4472;52.092;9.820;2023-08-12T09:41:24;7.23;;;4.80;;
8871;SDS011;4472;52.092;9.820;2023-08-12T09:44:13;8.70;;;5.90;;
8871;SDS011;4472;52.092;9.820;2023-08-12T09:47:02;5.17;;;4.67;;
8871;SDS011;4472;52.092;9.820;2023-08-12T09:49:49;7.30;;;5.00;;
8871;SDS011;4472;52.092;9.820;2023-08-12T09:52:37;9.03;;;5.63;;
8871;SDS011;4472;52.092;9.820;2023-08-12T09:55:25;7.57;;;4.83;;
8871;SDS011;4472;52.092;9.820;2023-08-12T09:58:12;7.17;;;5.23;;
8871;SDS011;4472;52.092;9.820;2023-08-12T10:01:02;6.23;;;4.77;;
8871;SDS011;4472;52.092;9.820;2023-08-12T10:03:51;9.53;;;6.00;;
8871;SDS011;4472;52.092;9.820;2023-08-12T10:06:41;7.17;;;5.43;;
8871;SDS011;4472;52.092;9.820;2023-08-12T10:09:28;6.50;;;4.30;;
8871;SDS011;4472;52.092;9.820;2023-08-12T10:12:16;13.63;;;5.40;;
8871;SDS011;4472;52.092;9.820;2023-08-12T10:15:04;7.00;;;5.60;;
8871;SDS011;4472;52.092;9.820;2023-08-12T10:17:55;6.77;;;5.90;;
8871;SDS011;4472;52.092;9.820;2023-08-12T10:20:44;10.50;;;5.70;;
8871;SDS011;4472;52.092;9.820;2023-08-12T10:23:32;5.70;;;5.23;;
8871;SDS011;4472;52.092;9.820;2023-08-12T10:26:19;4.50;;;4.10;;
8871;SDS011;4472;52.092;9.820;2023-08-12T10:29:08;8.17;;;5.97;;
8871;SDS011;4472;52.092;9.820;2023-08-12T10:31:56;8.17;;;5.97;;
8871;SDS011;4472;52.092;9.820;2023-08-12T10:34:44;10.90;;;6.63;;
8871;SDS011;4472;52.092;9.820;2023-08-12T10:37:32;7.47;;;6.57;;
8871;SDS011;4472;52.092;9.820;2023-08-12T10:40:21;8.47;;;4.97;;
8871;SDS011;4472;52.092;9.820;2023-08-12T10:43:09;8.00;;;6.03;;
8871;SDS011;4472;52.092;9.820;2023-08-12T10:45:57;6.13;;;5.50;;
8871;SDS011;4472;52.092;9.820;2023-08-12T10:48:53;7.07;;;6.37;;
8871;SDS011;4472;52.092;9.820;2023-08-12T10:51:44;8.83;;;5.67;;
8871;SDS011;4472;52.092;9.820;2023-08-12T10:54:33;6.57;;;5.90;;
8871;SDS011;4472;52.092;9.820;2023-08-12T10:57:34;6.13;;;5.17;;
8871;SDS011;4472;52.092;9.820;2023-08-12T11:00:24;5.80;;;5.20;;
8871;SDS011;4472;52.092;9.820;2023-08-12T11:03:12;9.30;;;4.83;;
8871;SDS011;4472;52.092;9.820;2023-08-12T11:05:59;5.70;;;4.93;;
8871;SDS011;4472;52.092;9.820;2023-08-12T11:08:47;5.20;;;4.80;;
8871;SDS011;4472;52.092;9.820;2023-08-12T11:11:39;5.40;;;4.90;;
8871;SDS011;4472;52.092;9.820;2023-08-12T11:14:26;5.03;;;3.90;;
8871;SDS011;4472;52.092;9.820;2023-08-12T11:17:13;4.97;;;4.27;;
8871;SDS011;4472;52.092;9.820;2023-08-12T11:20:02;5.25;;;4.07;;
8871;SDS011;4472;52.092;9.820;2023-08-12T11:22:50;4.03;;;3.73;;
8871;SDS011;4472;52.092;9.820;2023-08-12T11:25:39;5.00;;;3.90;;
8871;SDS011;4472;52.092;9.820;2023-08-12T11:28:30;6.07;;;4.20;;
8871;SDS011;4472;52.092;9.820;2023-08-12T11:31:18;5.13;;;3.60;;
8871;SDS011;4472;52.092;9.820;2023-08-12T11:34:05;4.70;;;3.70;;
8871;SDS011;4472;52.092;9.820;2023-08-12T11:36:52;6.27;;;3.57;;
8871;SDS011;4472;52.092;9.820;2023-08-12T11:39:40;4.10;;;3.80;;
8871;SDS011;4472;52.092;9.820;2023-08-12T11:42:27;4.10;;;3.58;;
8871;SDS011;4472;52.092;9.820;2023-08-12T11:45:16;4.10;;;3.70;;
8871;SDS011;4472;52.092;9.820;2023-08-12T11:48:05;4.78;;;3.45;;
8871;SDS011;4472;52.092;9.820;2023-08-12T11:50:53;4.27;;;3.97;;
8871;SDS011;4472;52.092;9.820;2023-08-12T11:53:41;4.05;;;3.60;;
8871;SDS011;4472;52.092;9.820;2023-08-12T11:56:28;3.13;;;2.92;;
8871;SDS011;4472;52.092;9.820;2023-08-12T11:59:16;3.75;;;3.20;;
8871;SDS011;4472;52.092;9.820;2023-08-12T12:02:04;3.87;;;3.00;;
8871;SDS011;4472;52.092;9.820;2023-08-12T12:04:51;3.00;;;2.90;;
8871;SDS011;4472;52.092;9.820;2023-08-12T12:07:39;4.27;;;3.30;;
8871;SDS011;4472;52.092;9.820;2023-08-12T12:10:26;3.33;;;3.00;;
8871;SDS011;4472;52.092;9.820;2023-08-12T12:13:15;2.63;;;2.45;;
8871;SDS011;4472;52.092;9.820;2023-08-12T12:16:04;3.08;;;2.75;;
8871;SDS011;4472;52.092;9.820;2023-08-12T12:18:58;3.20;;;3.00;;
8871;SDS011;4472;52.092;9.820;2023-08-12T12:21:46;3.55;;;3.25;;
8871;SDS011;4472;52.092;9.820;2023-08-12T12:24:43;3.25;;;2.78;;
8871;SDS011;4472;52.092;9.820;2023-08-12T12:27:31;3.58;;;2.78;;
8871;SDS011;4472;52.092;9.820;2023-08-12T12:30:19;2.87;;;2.67;;
8871;SDS011;4472;52.092;9.820;2023-08-12T12:33:06;2.80;;;2.60;;
8871;SDS011;4472;52.092;9.820;2023-08-12T12:36:05;2.92;;;2.72;;
8871;SDS011;4472;52.092;9.820;2023-08-12T12:38:52;3.92;;;3.17;;
8871;SDS011;4472;52.092;9.820;2023-08-12T12:41:39;2.85;;;2.65;;
8871;SDS011;4472;52.092;9.820;2023-08-12T12:44:26;2.75;;;2.55;;
8871;SDS011;4472;52.092;9.820;2023-08-12T12:47:13;2.75;;;2.55;;
8871;SDS011;4472;52.092;9.820;2023-08-12T12:50:01;4.03;;;2.83;;
8871;SDS011;4472;52.092;9.820;2023-08-12T12:52:49;2.97;;;2.70;;
8871;SDS011;4472;52.092;9.820;2023-08-12T12:55:36;3.57;;;2.60;;
8871;SDS011;4472;52.092;9.820;2023-08-12T12:58:24;1.80;;;1.70;;
8871;SDS011;4472;52.092;9.820;2023-08-12T13:01:11;8.53;;;2.60;;
8871;SDS011;4472;52.092;9.820;2023-08-12T13:03:58;3.70;;;1.87;;
8871;SDS011;4472;52.092;9.820;2023-08-12T13:06:45;3.67;;;2.10;;
8871;SDS011;4472;52.092;9.820;2023-08-12T13:09:34;2.27;;;1.90;;
8871;SDS011;4472;52.092;9.820;2023-08-12T13:12:21;2.13;;;1.90;;
8871;SDS011;4472;52.092;9.820;2023-08-12T13:15:08;2.20;;;2.00;;
8871;SDS011;4472;52.092;9.820;2023-08-12T13:17:56;2.07;;;1.97;;
8871;SDS011;4472;52.092;9.820;2023-08-12T13:20:43;2.30;;;1.97;;
8871;SDS011;4472;52.092;9.820;2023-08-12T13:23:31;2.20;;;2.00;;
8871;SDS011;4472;52.092;9.820;2023-08-12T13:26:19;2.60;;;2.20;;
8871;SDS011;4472;52.092;9.820;2023-08-12T13:29:06;2.30;;;2.00;;
8871;SDS011;4472;52.092;9.820;2023-08-12T13:31:54;2.50;;;2.30;;
8871;SDS011;4472;52.092;9.820;2023-08-12T13:34:41;2.60;;;2.47;;
8871;SDS011;4472;52.092;9.820;2023-08-12T13:37:31;2.80;;;2.30;;
8871;SDS011;4472;52.092;9.820;2023-08-12T13:40:19;2.37;;;2.20;;
8871;SDS011;4472;52.092;9.820;2023-08-12T13:43:07;2.17;;;2.07;;
8871;SDS011;4472;52.092;9.820;2023-08-12T13:45:54;2.40;;;2.03;;
8871;SDS011;4472;52.092;9.820;2023-08-12T13:48:41;2.30;;;2.07;;
8871;SDS011;4472;52.092;9.820;2023-08-12T13:51:28;2.50;;;2.07;;
8871;SDS011;4472;52.092;9.820;2023-08-12T13:54:17;2.17;;;2.00;;
8871;SDS011;4472;52.092;9.820;2023-08-12T13:57:04;2.57;;;1.90;;
8871;SDS011;4472;52.092;9.820;2023-08-12T13:59:52;2.07;;;1.90;;
8871;SDS011;4472;52.092;9.820;2023-08-12T14:02:39;5.27;;;2.00;;
8871;SDS011;4472;52.092;9.820;2023-08-12T14:05:27;1.93;;;1.83;;
8871;SDS011;4472;52.092;9.820;2023-08-12T14:08:14;1.90;;;1.80;;
8871;SDS011;4472;52.092;9.820;2023-08-12T14:11:01;2.13;;;2.03;;
8871;SDS011;4472;52.092;9.820;2023-08-12T14:13:50;1.90;;;1.80;;
8871;SDS011;4472;52.092;9.820;2023-08-12T14:16:38;1.80;;;1.70;;
8871;SDS011;4472;52.092;9.820;2023-08-12T14:19:26;1.88;;;1.77;;
8871;SDS011;4472;52.092;9.820;2023-08-12T14:22:13;2.35;;;2.08;;
8871;SDS011;4472;52.092;9.820;2023-08-12T14:25:00;1.67;;;1.60;;
8871;SDS011;4472;52.092;9.820;2023-08-12T14:27:49;1.63;;;1.60;;
8871;SDS011;4472;52.092;9.820;2023-08-12T14:30:36;1.60;;;1.55;;
8871;SDS011;4472;52.092;9.820;2023-08-12T14:33:25;1.70;;;1.60;;
8871;SDS011;4472;52.092;9.820;2023-08-12T14:36:14;2.00;;;1.90;;
8871;SDS011;4472;52.092;9.820;2023-08-12T14:39:01;1.70;;;1.60;;
8871;SDS011;4472;52.092;9.820;2023-08-12T14:41:48;2.92;;;1.73;;
8871;SDS011;4472;52.092;9.820;2023-08-12T14:44:35;1.70;;;1.60;;
8871;SDS011;4472;52.092;9.820;2023-08-12T14:47:23;3.63;;;1.60;;
8871;SDS011;4472;52.092;9.820;2023-08-12T14:50:11;2.33;;;1.55;;
8871;SDS011;4472;52.092;9.820;2023-08-12T14:52:58;1.90;;;1.80;;
8871;SDS011;4472;52.092;9.820;2023-08-12T14:55:45;2.00;;;1.90;;
8871;SDS011;4472;52.092;9.820;2023-08-12T14:58:32;2.00;;;1.90;;
8871;SDS011;4472;52.092;9.820;2023-08-12T15:01:20;1.90;;;1.80;;
8871;SDS011;4472;52.092;9.820;2023-08-12T15:04:09;2.90;;;1.65;;
8871;SDS011;4472;52.092;9.820;2023-08-12T15:06:58;2.40;;;1.90;;
8871;SDS011;4472;52.092;9.820;2023-08-12T15:09:45;3.72;;;2.25;;
8871;SDS011;4472;52.092;9.820;2023-08-12T15:12:32;1.80;;;1.70;;
8871;SDS011;4472;52.092;9.820;2023-08-12T15:15:20;2.67;;;1.97;;
8871;SDS011;4472;52.092;9.820;2023-08-12T15:18:07;2.00;;;1.90;;
8871;SDS011;4472;52.092;9.820;2023-08-12T15:20:54;2.10;;;1.90;;
8871;SDS011;4472;52.092;9.820;2023-08-12T15:23:42;1.90;;;1.80;;
8871;SDS011;4472;52.092;9.820;2023-08-12T15:26:29;1.70;;;1.70;;
8871;SDS011;4472;52.092;9.820;2023-08-12T15:29:17;2.43;;;1.83;;
8871;SDS011;4472;52.092;9.820;2023-08-12T15:32:04;1.40;;;1.30;;
8871;SDS011;4472;52.092;9.820;2023-08-12T15:34:51;1.10;;;1.10;;
8871;SDS011;4472;52.092;9.820;2023-08-12T15:37:38;1.10;;;1.10;;
8871;SDS011;4472;52.092;9.820;2023-08-12T15:40:27;1.20;;;1.20;;
8871;SDS011;4472;52.092;9.820;2023-08-12T15:43:14;1.40;;;1.30;;
8871;SDS011;4472;52.092;9.820;2023-08-12T15:46:01;1.10;;;1.10;;
8871;SDS011;4472;52.092;9.820;2023-08-12T15:48:48;0.97;;;0.97;;
8871;SDS011;4472;52.092;9.820;2023-08-12T15:51:35;1.10;;;1.07;;
8871;SDS011;4472;52.092;9.820;2023-08-12T15:54:23;0.93;;;0.93;;
8871;SDS011;4472;52.092;9.820;2023-08-12T16:00:13;1.43;;;1.00;;
8871;SDS011;4472;52.092;9.820;2023-08-12T16:03:01;1.20;;;1.20;;
8871;SDS011;4472;52.092;9.820;2023-08-12T16:05:48;2.07;;;1.47;;
8871;SDS011;4472;52.092;9.820;2023-08-12T16:08:35;1.30;;;1.30;;
8871;SDS011;4472;52.092;9.820;2023-08-12T16:11:22;1.50;;;1.40;;
8871;SDS011;4472;52.092;9.820;2023-08-12T16:14:10;1.50;;;1.40;;
8871;SDS011;4472;52.092;9.820;2023-08-12T16:16:58;1.70;;;1.60;;
8871;SDS011;4472;52.092;9.820;2023-08-12T16:19:45;1.60;;;1.50;;
8871;SDS011;4472;52.092;9.820;2023-08-12T16:22:32;2.13;;;1.93;;
8871;SDS011;4472;52.092;9.820;2023-08-12T16:25:19;1.87;;;1.77;;
8871;SDS011;4472;52.092;9.820;2023-08-12T16:28:06;2.40;;;2.30;;
8871;SDS011;4472;52.092;9.820;2023-08-12T16:34:08;2.40;;;2.30;;
8871;SDS011;4472;52.092;9.820;2023-08-12T16:36:55;2.83;;;2.63;;
8871;SDS011;4472;52.092;9.820;2023-08-12T16:39:43;2.10;;;2.00;;
8871;SDS011;4472;52.092;9.820;2023-08-12T16:42:30;2.17;;;2.00;;
8871;SDS011;4472;52.092;9.820;2023-08-12T16:45:17;2.03;;;1.93;;
8871;SDS011;4472;52.092;9.820;2023-08-12T16:48:06;2.00;;;1.90;;
8871;SDS011;4472;52.092;9.820;2023-08-12T16:50:53;2.03;;;1.93;;
8871;SDS011;4472;52.092;9.820;2023-08-12T16:53:40;2.07;;;1.93;;
8871;SDS011;4472;52.092;9.820;2023-08-12T16:56:27;2.33;;;2.07;;
8871;SDS011;4472;52.092;9.820;2023-08-12T16:59:14;2.57;;;2.43;;
8871;SDS011;4472;52.092;9.820;2023-08-12T17:02:01;1.87;;;1.77;;
8871;SDS011;4472;52.092;9.820;2023-08-12T17:04:50;1.87;;;1.77;;
8871;SDS011;4472;52.092;9.820;2023-08-12T17:07:37;1.73;;;1.70;;
8871;SDS011;4472;52.092;9.820;2023-08-12T17:10:25;1.73;;;1.63;;
8871;SDS011;4472;52.092;9.820;2023-08-12T17:13:14;1.70;;;1.60;;
8871;SDS011;4472;52.092;9.820;2023-08-12T17:16:01;1.80;;;1.70;;
8871;SDS011;4472;52.092;9.820;2023-08-12T17:18:48;2.60;;;2.40;;
8871;SDS011;4472;52.092;9.820;2023-08-12T17:21:37;2.40;;;2.20;;
8871;SDS011;4472;52.092;9.820;2023-08-12T17:24:24;2.37;;;2.20;;
8871;SDS011;4472;52.092;9.820;2023-08-12T17:27:11;2.13;;;1.93;;